createdAt,value
2023-12-03T00:01:09.489Z,18.85
2023-12-03T00:05:08.769Z,18.67
2023-12-03T00:10:08.263Z,20.15
2023-12-03T00:15:08.495Z,21.40
2023-12-03T00:20:08.974Z,21.08
2023-12-03T00:25:08.247Z,18.67
2023-12-03T00:30:08.595Z,20.08
2023-12-03T00:35:08.687Z,21.23
2023-12-03T00:40:08.856Z,21.92
2023-12-03T00:45:09.116Z,20.65
2023-12-03T00:50:08.345Z,20.08
2023-12-03T00:55:08.552Z,20.90
2023-12-03T01:00:08.794Z,20.88
2023-12-03T01:05:08.381Z,21.58
2023-12-03T01:10:08.697Z,21.67
2023-12-03T01:15:08.986Z,19.60
2023-12-03T01:20:08.187Z,19.65
2023-12-03T01:25:08.809Z,19.75
2023-12-03T01:30:09.005Z,19.60
2023-12-03T01:35:08.104Z,19.52
2023-12-03T01:40:08.298Z,19.95
2023-12-03T01:45:08.613Z,19.08
2023-12-03T01:50:08.904Z,20.27
2023-12-03T01:55:09.166Z,19.75
2023-12-03T02:00:08.513Z,20.63
2023-12-03T02:05:09.086Z,22.00
2023-12-03T02:10:08.297Z,21.40
2023-12-03T02:15:08.613Z,22.13
2023-12-03T02:20:08.796Z,21.98
2023-12-03T02:25:09.048Z,20.45
2023-12-03T02:30:08.249Z,19.52
2023-12-03T02:35:08.524Z,23.23
2023-12-03T02:40:08.727Z,22.23
2023-12-03T02:45:08.994Z,19.42
2023-12-03T02:50:08.180Z,22.05
2023-12-03T02:55:08.328Z,20.27
2023-12-03T03:00:08.528Z,19.38
2023-12-03T03:05:08.680Z,18.10
2023-12-03T03:10:08.799Z,17.70
2023-12-03T03:15:09.100Z,17.40
2023-12-03T03:20:08.235Z,18.10
2023-12-03T03:25:08.337Z,18.75
2023-12-03T03:30:08.611Z,18.15
2023-12-03T03:35:08.816Z,18.40
2023-12-03T03:40:08.956Z,18.80
2023-12-03T03:45:08.116Z,20.85
2023-12-03T03:50:08.341Z,21.95
2023-12-03T03:55:16.808Z,20.75
2023-12-03T04:00:08.945Z,19.25
2023-12-03T04:05:08.061Z,22.42
2023-12-03T04:10:08.299Z,22.45
2023-12-03T04:15:08.545Z,21.55
2023-12-03T04:20:08.744Z,20.95
2023-12-03T04:25:08.810Z,21.65
2023-12-03T04:30:09.023Z,18.63
2023-12-03T04:35:08.176Z,22.02
2023-12-03T04:40:08.371Z,20.73
2023-12-03T04:45:08.492Z,21.70
2023-12-03T04:50:08.590Z,20.40
2023-12-03T04:55:08.795Z,21.92
2023-12-03T05:00:09.102Z,22.33
2023-12-03T05:05:02.408Z,22.02
2023-12-03T05:10:02.811Z,23.13
2023-12-03T05:15:03.229Z,22.20
2023-12-03T05:20:02.639Z,21.40
2023-12-03T05:25:03.111Z,21.92
2023-12-03T05:30:02.419Z,20.63
2023-12-03T05:35:02.710Z,21.45
2023-12-03T05:40:03.085Z,20.02
2023-12-03T05:45:02.387Z,19.75
2023-12-03T05:50:02.878Z,18.67
2023-12-03T05:55:02.223Z,18.40
2023-12-03T06:00:02.486Z,19.88
2023-12-03T06:05:02.798Z,18.80
2023-12-03T06:10:03.184Z,19.45
2023-12-03T06:15:02.490Z,18.15
2023-12-03T06:20:02.864Z,19.90
2023-12-03T06:25:04.821Z,19.20
2023-12-03T06:30:03.005Z,16.60
2023-12-03T06:35:02.258Z,18.20
2023-12-03T06:40:02.711Z,19.52
2023-12-03T06:45:03.054Z,18.50
2023-12-03T06:50:02.331Z,19.63
2023-12-03T06:55:02.716Z,19.23
2023-12-03T07:00:03.055Z,20.50
2023-12-03T07:05:02.303Z,18.75
2023-12-03T07:10:02.706Z,20.35
2023-12-03T07:15:03.077Z,20.50
2023-12-03T07:20:02.219Z,20.20
2023-12-03T07:25:02.490Z,19.75
2023-12-03T07:30:02.791Z,18.45
2023-12-03T07:35:03.035Z,18.20
2023-12-03T07:40:02.451Z,16.77
2023-12-03T07:45:02.828Z,18.50
2023-12-03T07:50:03.096Z,19.17
2023-12-03T07:55:02.344Z,16.50
2023-12-03T08:00:02.528Z,19.63
2023-12-03T08:05:02.930Z,17.63
2023-12-03T08:10:02.315Z,19.35
2023-12-03T08:15:02.642Z,17.63
2023-12-03T08:20:02.935Z,17.63
2023-12-03T08:25:02.291Z,17.45
2023-12-03T08:30:02.594Z,18.13
2023-12-03T08:35:02.911Z,18.08
2023-12-03T08:40:03.249Z,18.00
2023-12-03T08:45:02.392Z,17.70
2023-12-03T08:50:02.619Z,16.38
2023-12-03T08:55:02.889Z,16.17
2023-12-03T09:00:03.278Z,17.38
2023-12-03T09:05:02.648Z,15.65
2023-12-03T09:10:03.054Z,15.18
2023-12-03T09:15:02.287Z,16.73
2023-12-03T09:20:02.912Z,16.58
2023-12-03T09:25:03.371Z,17.48
2023-12-03T09:30:02.718Z,18.08
2023-12-03T09:35:03.066Z,17.67
2023-12-03T09:40:02.404Z,17.73
2023-12-03T09:45:02.691Z,17.02
2023-12-03T09:50:03.047Z,16.75
2023-12-03T09:55:02.322Z,15.57
2023-12-03T10:00:02.728Z,15.77
2023-12-03T10:05:03.240Z,16.55
2023-12-03T10:10:02.732Z,16.17
2023-12-03T10:15:03.065Z,15.57
2023-12-03T10:20:02.372Z,16.27
2023-12-03T10:25:02.646Z,15.27
2023-12-03T10:30:03.029Z,16.13
2023-12-03T10:35:02.206Z,15.65
2023-12-03T10:40:02.559Z,14.60
2023-12-03T10:45:02.800Z,15.35
2023-12-03T10:50:02.959Z,16.48
2023-12-03T10:55:02.251Z,15.48
2023-12-03T11:00:03.036Z,16.02
2023-12-03T11:05:02.300Z,15.18
2023-12-03T11:10:02.709Z,15.95
2023-12-03T11:15:03.098Z,15.32
2023-12-03T11:20:02.499Z,15.20
2023-12-03T11:25:03.185Z,15.48
2023-12-03T11:30:02.540Z,16.27
2023-12-03T11:35:03.078Z,15.65
2023-12-03T11:40:02.472Z,14.98
2023-12-03T11:45:02.775Z,14.35
2023-12-03T11:50:02.940Z,13.38
2023-12-03T11:55:02.335Z,13.85
2023-12-03T12:00:02.682Z,14.68
2023-12-03T12:05:02.973Z,12.70
2023-12-03T12:10:02.528Z,13.60
2023-12-03T12:15:02.949Z,12.05
2023-12-03T12:20:12.424Z,11.95
2023-12-03T12:25:03.468Z,11.80
2023-12-03T12:30:14.077Z,10.82
2023-12-03T12:35:02.603Z,11.98
2023-12-03T12:40:02.929Z,11.65
2023-12-03T12:45:02.423Z,11.60
2023-12-03T12:50:02.687Z,11.43
2023-12-03T12:55:06.938Z,12.45
2023-12-03T13:00:03.103Z,10.88
2023-12-03T13:05:02.297Z,10.93
2023-12-03T13:10:02.836Z,10.32
2023-12-03T13:15:03.168Z,9.40
2023-12-03T13:20:02.597Z,9.85
2023-12-03T13:25:03.162Z,10.55
2023-12-03T13:30:02.442Z,10.35
2023-12-03T13:35:06.170Z,11.00
2023-12-03T13:40:02.917Z,10.00
2023-12-03T13:45:02.238Z,10.70
2023-12-03T13:50:02.703Z,9.10
2023-12-03T13:55:03.039Z,11.57
2023-12-03T14:00:02.454Z,11.02
2023-12-03T14:05:12.771Z,11.02
2023-12-03T14:10:03.229Z,11.13
2023-12-03T14:15:02.603Z,10.27
2023-12-03T14:20:03.082Z,10.30
2023-12-03T14:25:02.584Z,10.20
2023-12-03T14:30:02.894Z,9.52
2023-12-03T14:35:03.272Z,10.55
2023-12-03T14:40:02.592Z,10.10
2023-12-03T14:45:02.826Z,10.00
2023-12-03T14:50:03.066Z,10.90
2023-12-03T14:55:02.437Z,11.75
2023-12-03T15:00:02.876Z,11.27
2023-12-03T15:05:03.306Z,11.65
2023-12-03T15:10:02.672Z,12.95
2023-12-03T15:15:03.255Z,12.18
2023-12-03T15:20:02.861Z,12.00
2023-12-03T15:25:02.211Z,12.50
2023-12-03T15:30:02.685Z,11.90
2023-12-03T15:35:02.967Z,13.05
2023-12-03T15:40:02.308Z,13.10
2023-12-03T15:45:02.616Z,13.27
2023-12-03T15:50:02.867Z,14.25
2023-12-03T15:55:12.387Z,13.75
2023-12-03T16:00:02.767Z,12.27
2023-12-03T16:05:03.314Z,12.73
2023-12-03T16:10:06.121Z,12.85
2023-12-03T16:15:02.800Z,13.45
2023-12-03T16:20:03.154Z,13.70
2023-12-03T16:25:02.616Z,12.13
2023-12-03T16:30:03.061Z,12.55
2023-12-03T16:35:02.489Z,12.52
2023-12-03T16:40:02.871Z,11.95
2023-12-03T16:45:03.160Z,11.23
2023-12-03T16:50:02.575Z,11.00
2023-12-03T16:55:03.049Z,12.10
2023-12-03T17:00:02.857Z,11.70
2023-12-03T17:05:03.342Z,11.55
2023-12-03T17:10:02.915Z,10.70
2023-12-03T17:15:02.353Z,10.40
2023-12-03T17:20:02.744Z,12.57
2023-12-03T17:25:03.206Z,11.60
2023-12-03T17:30:02.545Z,12.27
2023-12-03T17:35:03.150Z,12.57
2023-12-03T17:40:02.696Z,11.00
2023-12-03T17:45:03.363Z,12.23
2023-12-03T17:50:02.693Z,11.93
2023-12-03T17:55:02.901Z,11.52
2023-12-03T18:00:02.194Z,10.27
2023-12-03T18:05:02.605Z,10.82
2023-12-03T18:10:03.077Z,11.18
2023-12-03T18:15:02.506Z,10.60
2023-12-03T18:20:02.838Z,10.40
2023-12-03T18:25:03.223Z,10.57
2023-12-03T18:30:02.517Z,10.77
2023-12-03T18:35:02.817Z,11.65
2023-12-03T18:40:03.505Z,10.80
2023-12-03T18:45:03.018Z,11.13
2023-12-03T18:50:02.287Z,12.73
2023-12-03T18:55:02.637Z,11.77
2023-12-03T19:00:03.020Z,11.07
2023-12-03T19:05:02.473Z,12.02
2023-12-03T19:10:02.932Z,11.52
2023-12-03T19:15:02.375Z,11.88
2023-12-03T19:20:02.735Z,13.55
2023-12-03T19:25:03.067Z,13.00
2023-12-03T19:30:02.430Z,12.50
2023-12-03T19:35:02.797Z,12.30
2023-12-03T19:40:03.342Z,13.00
2023-12-03T19:45:02.750Z,13.13
2023-12-03T19:50:03.171Z,12.20
2023-12-03T19:55:02.605Z,11.38
2023-12-03T20:00:03.172Z,12.68
2023-12-03T20:05:02.636Z,12.20
2023-12-03T20:10:03.220Z,12.43
2023-12-03T20:15:02.646Z,12.07
2023-12-03T20:20:03.084Z,13.07
2023-12-03T20:25:02.562Z,11.30
2023-12-03T20:30:03.082Z,12.23
2023-12-03T20:35:02.350Z,12.23
2023-12-03T20:40:02.636Z,10.30
2023-12-03T20:45:03.158Z,11.60
2023-12-03T20:50:02.569Z,11.77
2023-12-03T20:55:03.020Z,11.38
2023-12-03T21:00:02.587Z,10.55
2023-12-03T21:05:03.065Z,10.43
2023-12-03T21:10:02.568Z,11.27
2023-12-03T21:15:02.815Z,9.95
2023-12-03T21:20:03.222Z,8.93
2023-12-03T21:25:02.611Z,10.82
2023-12-03T21:30:02.962Z,11.38
2023-12-03T21:35:02.300Z,9.90
2023-12-03T21:40:02.694Z,12.07
2023-12-03T21:45:03.065Z,11.25
2023-12-03T21:50:02.435Z,11.73
2023-12-03T21:55:02.863Z,12.13
2023-12-03T22:00:02.372Z,12.75
2023-12-03T22:05:02.737Z,12.55
2023-12-03T22:10:03.138Z,13.30
2023-12-03T22:15:02.513Z,13.82
2023-12-03T22:20:02.907Z,14.70
2023-12-03T22:25:02.390Z,14.68
2023-12-03T22:30:06.686Z,14.35
2023-12-03T22:35:02.339Z,15.63
2023-12-03T22:40:02.794Z,14.57
2023-12-03T22:45:03.911Z,15.20
2023-12-03T22:50:04.829Z,14.55
2023-12-03T22:55:03.378Z,15.10
2023-12-03T23:00:02.869Z,14.48
2023-12-03T23:05:24.854Z,15.80
2023-12-03T23:10:08.241Z,16.30
2023-12-03T23:15:08.505Z,16.20
2023-12-03T23:20:08.869Z,15.50
2023-12-03T23:25:08.164Z,15.43
2023-12-03T23:30:08.437Z,15.02
2023-12-03T23:35:08.693Z,15.10
2023-12-03T23:40:09.673Z,14.73
2023-12-03T23:45:08.962Z,14.90
2023-12-03T23:50:08.153Z,14.70
2023-12-03T23:55:08.382Z,13.15
